Time;durP1;ratioP1;P1;durP2;ratioP2;P2;SDS_P1;SDS_P2;PMS_P1;PMS_P2;Temp;Humidity;BMP_temperature;BMP_pressure;BME280_temperature;BME280_humidity;BME280_pressure;Samples;Min_cycle;Max_cycle;Signal;HPM_P1;HPM_P2
2022/04/12 00:01:14;;;;;;;13.25;9.02;;;;;;;6.11;100.00;96268.06;5067654;28;20064;-53
2022/04/12 00:03:42;;;;;;;12.52;8.60;;;;;;;5.45;100.00;96265.34;5065228;28;20060;-54
2022/04/12 00:06:11;;;;;;;10.77;8.68;;;;;;;4.97;100.00;96257.66;5068580;28;20502;-55
2022/04/12 00:08:40;;;;;;;10.70;8.63;;;;;;;4.87;100.00;96261.91;5067107;28;20293;-53
2022/04/12 00:11:09;;;;;;;11.23;8.98;;;;;;;4.87;100.00;96257.50;5069126;28;20526;-50
2022/04/12 00:13:37;;;;;;;11.82;9.32;;;;;;;4.84;100.00;96255.13;5068477;28;20505;-54
2022/04/12 00:16:06;;;;;;;13.70;9.50;;;;;;;5.45;100.00;96260.94;5066089;28;20061;-51
2022/04/12 00:21:20;;;;;;;13.27;10.15;;;;;;;5.52;100.00;96250.84;5067777;28;20056;-46
2022/04/12 00:23:49;;;;;;;13.20;9.55;;;;;;;5.75;100.00;96245.59;5066432;28;20064;-52
2022/04/12 00:26:18;;;;;;;12.40;9.90;;;;;;;5.90;100.00;96247.84;5068664;28;20072;-50
2022/04/12 00:28:46;;;;;;;16.27;11.05;;;;;;;5.91;100.00;96252.13;5067005;28;20087;-46
2022/04/12 00:31:14;;;;;;;13.85;9.57;;;;;;;6.01;100.00;96254.03;5067753;28;20071;-48
2022/04/12 00:33:42;;;;;;;13.82;10.07;;;;;;;6.04;100.00;96246.78;5060333;28;20075;-49
2022/04/12 00:36:11;;;;;;;12.82;9.95;;;;;;;5.91;100.00;96240.81;5065038;28;20076;-53
2022/04/12 00:38:40;;;;;;;12.32;9.18;;;;;;;5.85;100.00;96241.28;5067020;28;20518;-51
2022/04/12 00:41:11;;;;;;;12.18;9.25;;;;;;;5.87;100.00;96242.84;5064548;28;20076;-49
2022/04/12 00:43:40;;;;;;;13.73;9.25;;;;;;;5.41;100.00;96245.63;5067148;28;20087;-51
2022/04/12 00:46:08;;;;;;;11.55;9.00;;;;;;;5.46;100.00;96249.50;5067671;28;20538;-52
2022/04/12 00:48:36;;;;;;;14.43;8.95;;;;;;;5.72;100.00;96244.06;5066618;28;20051;-49
2022/04/12 00:51:05;;;;;;;13.55;9.55;;;;;;;5.56;100.00;96256.66;5064990;28;20072;-46
2022/04/12 00:53:34;;;;;;;18.42;9.90;;;;;;;5.75;100.00;96245.59;5067555;28;20071;-52
2022/04/12 00:56:02;;;;;;;13.80;9.68;;;;;;;5.40;100.00;96247.41;5065642;28;20072;-51
2022/04/12 00:58:32;;;;;;;12.52;9.57;;;;;;;4.88;100.00;96243.50;5065710;28;21659;-52
2022/04/12 01:01:00;;;;;;;16.20;10.00;;;;;;;4.96;100.00;96238.53;5065062;28;20482;-52
2022/04/12 01:03:28;;;;;;;17.88;10.38;;;;;;;5.01;100.00;96240.78;5065553;28;20119;-46
2022/04/12 01:05:57;;;;;;;13.95;10.40;;;;;;;4.87;100.00;96238.41;5063364;28;20056;-52
2022/04/12 01:08:25;;;;;;;16.77;11.20;;;;;;;4.93;100.00;96244.00;5063592;28;20075;-49
2022/04/12 01:10:54;;;;;;;17.00;11.32;;;;;;;5.07;100.00;96242.94;5066666;28;20076;-49
2022/04/12 01:13:22;;;;;;;17.60;10.82;;;;;;;5.35;100.00;96236.44;5066709;28;20071;-46
2022/04/12 01:15:52;;;;;;;13.68;10.20;;;;;;;5.92;100.00;96226.81;5065137;28;20068;-50
2022/04/12 01:18:20;;;;;;;15.77;10.20;;;;;;;5.82;100.00;96231.09;5066697;28;20079;-49
2022/04/12 01:20:49;;;;;;;13.52;10.07;;;;;;;5.29;100.00;96229.06;5065527;28;20061;-48
2022/04/12 01:23:21;;;;;;;14.65;9.90;;;;;;;5.64;100.00;96228.13;5066033;28;20079;-50
2022/04/12 01:25:51;;;;;;;13.88;10.18;;;;;;;5.93;100.00;96226.69;5066660;28;20072;-55
2022/04/12 01:28:19;;;;;;;12.95;9.70;;;;;;;5.82;100.00;96224.06;5047811;28;20065;-48
2022/04/12 01:30:47;;;;;;;14.52;9.77;;;;;;;5.04;100.00;96221.44;5059746;28;20064;-45
2022/04/12 01:33:16;;;;;;;13.88;9.82;;;;;;;5.32;100.00;96217.56;5067988;28;20056;-53
2022/04/12 01:35:44;;;;;;;15.40;9.93;;;;;;;4.89;100.00;96221.66;5064575;28;20060;-50
2022/04/12 01:38:12;;;;;;;15.73;9.48;;;;;;;5.03;100.00;96214.56;5065664;28;20691;-48
2022/04/12 01:40:40;;;;;;;14.07;10.02;;;;;;;5.06;100.00;96209.06;5066777;28;20076;-47
2022/04/12 01:43:10;;;;;;;15.02;10.15;;;;;;;4.96;100.00;96201.97;5063865;28;20245;-49
2022/04/12 01:45:38;;;;;;;16.90;10.15;;;;;;;4.65;100.00;96203.44;5066305;28;20060;-48
2022/04/12 01:48:07;;;;;;;16.77;11.10;;;;;;;4.81;100.00;96208.31;5064577;28;20083;-54
2022/04/12 01:50:36;;;;;;;15.48;11.00;;;;;;;5.43;100.00;96200.06;5065018;28;20048;-55
2022/04/12 01:53:04;;;;;;;15.27;11.05;;;;;;;5.90;100.00;96207.75;5065488;28;20107;-49
2022/04/12 01:55:32;;;;;;;16.92;11.02;;;;;;;5.40;100.00;96209.94;5066826;28;20449;-47
2022/04/12 01:58:00;;;;;;;13.35;10.23;;;;;;;5.86;100.00;96208.97;5064083;28;20064;-53
2022/04/12 02:00:30;;;;;;;12.02;8.98;;;;;;;5.64;100.00;96213.28;5066963;28;20071;-50
2022/04/12 02:02:58;;;;;;;12.73;9.23;;;;;;;5.30;100.00;96217.69;5062274;28;20071;-51
2022/04/12 02:05:27;;;;;;;13.10;9.27;;;;;;;5.15;100.00;96218.84;5063390;28;20111;-48
2022/04/12 02:07:55;;;;;;;13.73;8.75;;;;;;;5.15;100.00;96222.28;5064617;28;20072;-47
2022/04/12 02:10:23;;;;;;;12.27;9.85;;;;;;;5.09;100.00;96222.75;5064029;28;20060;-45
2022/04/12 02:12:51;;;;;;;12.85;8.93;;;;;;;5.18;100.00;96213.38;5061701;28;20068;-51
2022/04/12 02:15:20;;;;;;;16.25;11.00;;;;;;;5.22;100.00;96215.63;5061696;28;20045;-51
2022/04/12 02:17:50;;;;;;;16.98;10.20;;;;;;;5.19;100.00;96222.88;5064323;28;20037;-50
2022/04/12 02:20:18;;;;;;;14.95;9.88;;;;;;;5.13;100.00;96215.53;5063310;28;20546;-46
2022/04/12 02:22:46;;;;;;;14.00;9.88;;;;;;;5.04;100.00;96219.66;5065336;28;20449;-47
2022/04/12 02:25:14;;;;;;;13.98;9.82;;;;;;;5.10;100.00;96221.81;5062062;28;20052;-49
2022/04/12 02:27:43;;;;;;;15.32;10.15;;;;;;;5.09;100.00;96219.31;5062920;28;20060;-48
2022/04/12 02:30:13;;;;;;;16.90;10.57;;;;;;;5.11;100.00;96214.81;5061156;28;20072;-48
2022/04/12 02:32:41;;;;;;;17.52;10.90;;;;;;;5.08;100.00;96215.03;5063486;28;20060;-50
2022/04/12 02:35:11;;;;;;;14.43;10.68;;;;;;;5.00;100.00;96216.44;5063445;28;20080;-47
2022/04/12 02:37:39;;;;;;;15.50;10.87;;;;;;;4.79;100.00;96214.63;5066471;28;20091;-53
2022/04/12 02:40:08;;;;;;;15.70;10.52;;;;;;;4.70;100.00;96229.19;5064483;28;20974;-51
2022/04/12 02:42:36;;;;;;;16.05;10.30;;;;;;;4.94;100.00;96222.13;5065775;28;20063;-53
2022/04/12 02:45:05;;;;;;;15.10;11.05;;;;;;;4.90;100.00;96220.69;5062846;28;20095;-52
2022/04/12 02:47:33;;;;;;;20.20;11.30;;;;;;;4.85;100.00;96217.63;5063965;28;20068;-47
2022/04/12 02:50:02;;;;;;;15.70;10.95;;;;;;;4.58;100.00;96217.91;5064270;28;20092;-51
2022/04/12 02:52:31;;;;;;;16.98;10.98;;;;;;;4.87;100.00;96223.53;5063063;28;20481;-49
2022/04/12 02:54:59;;;;;;;16.10;10.68;;;;;;;4.62;100.00;96218.50;5064467;28;20064;-50
2022/04/12 02:57:28;;;;;;;16.88;11.10;;;;;;;4.65;100.00;96220.88;5064540;28;20106;-49
2022/04/12 02:59:56;;;;;;;18.40;10.70;;;;;;;4.74;100.00;96222.78;5064323;28;20991;-54
2022/04/12 03:02:24;;;;;;;18.92;11.82;;;;;;;4.87;100.00;96228.78;5064636;28;20072;-51
2022/04/12 03:04:52;;;;;;;19.23;11.63;;;;;;;5.02;100.00;96220.72;5061997;28;20110;-46
2022/04/12 03:07:20;;;;;;;19.23;11.75;;;;;;;5.04;100.00;96218.84;5064537;28;20075;-48
2022/04/12 03:09:50;;;;;;;18.00;12.02;;;;;;;5.06;100.00;96219.53;5063831;28;20068;-53
2022/04/12 03:12:18;;;;;;;18.10;11.77;;;;;;;5.12;100.00;96217.28;5064345;28;20518;-48
2022/04/12 03:14:46;;;;;;;15.00;11.40;;;;;;;5.10;100.00;96213.97;5065205;28;20068;-52
2022/04/12 03:17:17;;;;;;;16.07;11.53;;;;;;;5.08;100.00;96215.84;5068487;28;20091;-51
2022/04/12 03:19:45;;;;;;;16.42;10.98;;;;;;;4.97;100.00;96221.06;5068525;28;20552;-51
2022/04/12 03:22:13;;;;;;;15.38;11.02;;;;;;;4.90;100.00;96223.31;5069299;28;20068;-53
2022/04/12 03:24:41;;;;;;;19.40;11.18;;;;;;;4.85;100.00;96221.97;5069321;28;20095;-51
2022/04/12 03:27:11;;;;;;;14.68;11.15;;;;;;;4.88;100.00;96222.59;5064679;28;20061;-48
2022/04/12 03:29:39;;;;;;;16.20;10.50;;;;;;;5.02;100.00;96211.09;5066968;28;20522;-51
2022/04/12 03:32:08;;;;;;;15.80;10.90;;;;;;;5.06;100.00;96219.53;5065751;28;20083;-50
2022/04/12 03:34:39;;;;;;;15.68;11.25;;;;;;;5.18;100.00;96216.00;5067321;28;20072;-48
2022/04/12 03:37:07;;;;;;;15.45;11.90;;;;;;;5.17;100.00;96222.19;5067992;28;20068;-55
2022/04/12 03:39:36;;;;;;;15.13;10.45;;;;;;;5.19;100.00;96221.09;5068465;28;20072;-48
2022/04/12 03:42:05;;;;;;;15.75;11.32;;;;;;;5.16;100.00;96220.50;5067379;28;20067;-51
2022/04/12 03:44:34;;;;;;;18.25;11.13;;;;;;;4.47;100.00;96218.69;5065931;28;20075;-47
2022/04/12 03:47:03;;;;;;;18.85;11.40;;;;;;;4.44;100.00;96207.63;5066932;28;20080;-49
2022/04/12 03:49:31;;;;;;;17.40;10.50;;;;;;;4.04;100.00;96220.97;5068049;28;20079;-53
2022/04/12 03:51:59;;;;;;;16.45;11.18;;;;;;;4.07;100.00;96214.72;5066430;28;20065;-49
2022/04/12 03:54:28;;;;;;;17.75;12.15;;;;;;;3.89;100.00;96222.06;5067164;28;20079;-51
2022/04/12 03:56:56;;;;;;;17.58;11.75;;;;;;;4.02;100.00;96215.84;5067591;28;20091;-51
2022/04/12 03:59:25;;;;;;;18.55;12.32;;;;;;;4.22;100.00;96226.63;5066387;28;20080;-53
2022/04/12 04:01:54;;;;;;;21.52;13.15;;;;;;;4.22;100.00;96217.03;5068120;28;20087;-50
2022/04/12 04:04:23;;;;;;;18.13;12.37;;;;;;;4.40;100.00;96221.84;5067422;28;20068;-52
2022/04/12 04:06:51;;;;;;;21.20;13.10;;;;;;;4.32;100.00;96211.16;5067810;28;20897;-55
2022/04/12 04:09:19;;;;;;;21.38;13.45;;;;;;;4.63;100.00;96212.31;5066064;28;20469;-49
2022/04/12 04:11:48;;;;;;;18.15;13.52;;;;;;;4.53;100.00;96215.59;5066694;28;20463;-53
2022/04/12 04:14:16;;;;;;;22.13;12.82;;;;;;;4.81;100.00;96213.53;5064938;28;20083;-48
2022/04/12 04:16:44;;;;;;;18.00;12.48;;;;;;;4.98;100.00;96212.28;5064742;28;20064;-49
2022/04/12 04:19:14;;;;;;;18.20;11.68;;;;;;;4.80;100.00;96226.75;5064552;28;20064;-47
2022/04/12 04:21:42;;;;;;;19.70;10.77;;;;;;;4.57;100.00;96218.81;5064184;28;20075;-49
2022/04/12 04:24:11;;;;;;;15.70;10.93;;;;;;;4.46;100.00;96222.22;5065944;28;20067;-51
2022/04/12 04:26:39;;;;;;;15.13;11.38;;;;;;;4.65;100.00;96223.50;5064057;28;20072;-50
2022/04/12 04:29:08;;;;;;;15.75;10.48;;;;;;;4.74;100.00;96223.63;5065410;28;20060;-55
2022/04/12 04:31:36;;;;;;;15.43;11.25;;;;;;;4.86;100.00;96223.69;5070363;28;20080;-48
2022/04/12 04:34:04;;;;;;;18.95;12.63;;;;;;;4.82;100.00;96228.28;5070001;28;20084;-49
2022/04/12 04:36:34;;;;;;;18.00;12.18;;;;;;;4.42;100.00;96227.81;5068478;28;20061;-51
2022/04/12 04:39:02;;;;;;;19.80;12.63;;;;;;;4.98;100.00;96233.19;5069892;28;20059;-52
2022/04/12 04:41:31;;;;;;;16.30;11.93;;;;;;;5.22;100.00;96231.31;5068156;28;20067;-55
2022/04/12 04:44:00;;;;;;;17.20;12.50;;;;;;;5.20;100.00;96235.03;5063978;28;20072;-54
2022/04/12 04:46:29;;;;;;;18.85;12.40;;;;;;;5.15;100.00;96239.75;5071873;28;20079;-47
2022/04/12 04:48:57;;;;;;;16.73;12.40;;;;;;;4.71;100.00;96236.94;5067995;28;20469;-51
2022/04/12 04:51:26;;;;;;;17.08;12.25;;;;;;;4.75;100.00;96233.16;5068046;28;20075;-49
2022/04/12 04:53:58;;;;;;;19.23;12.27;;;;;;;4.92;100.00;96229.28;5069744;28;20078;-53
2022/04/12 04:56:27;;;;;;;20.17;12.85;;;;;;;5.37;100.00;96224.09;5070851;28;20100;-48
2022/04/12 04:58:55;;;;;;;18.42;13.27;;;;;;;5.38;100.00;96219.69;5068422;28;20122;-49
2022/04/12 05:01:23;;;;;;;17.63;13.70;;;;;;;5.46;100.00;96223.38;5068729;28;20561;-51
2022/04/12 05:03:52;;;;;;;20.35;15.57;;;;;;;6.48;100.00;96216.19;5070512;28;20068;-50
2022/04/12 05:06:20;;;;;;;18.73;14.27;;;;;;;6.41;100.00;96222.88;5070489;28;20052;-49
2022/04/12 05:08:49;;;;;;;16.55;13.15;;;;;;;7.11;100.00;96219.66;5069975;28;20513;-54
2022/04/12 05:11:18;;;;;;;16.52;12.70;;;;;;;6.93;100.00;96223.00;5068046;28;20077;-52
2022/04/12 05:13:46;;;;;;;14.23;11.93;;;;;;;7.11;100.00;96218.81;5068985;28;20076;-55
2022/04/12 05:16:15;;;;;;;16.58;12.05;;;;;;;8.41;100.00;96222.50;5066519;28;20075;-51
2022/04/12 05:18:43;;;;;;;14.93;11.10;;;;;;;8.56;100.00;96219.28;5071768;28;20686;-53
2022/04/12 05:21:11;;;;;;;14.68;10.20;;;;;;;8.26;100.00;96230.75;5079452;28;20095;-53
2022/04/12 05:23:40;;;;;;;14.10;10.60;;;;;;;7.77;100.00;96224.50;5070861;28;20115;-48
2022/04/12 05:26:09;;;;;;;14.65;10.57;;;;;;;7.49;100.00;96239.19;5065761;28;20087;-49
2022/04/12 05:28:38;;;;;;;15.93;12.07;;;;;;;7.13;100.00;96235.28;5071296;28;20067;-49
2022/04/12 05:31:06;;;;;;;14.77;11.60;;;;;;;7.32;100.00;96240.63;5067275;28;20146;-51
2022/04/12 05:33:35;;;;;;;15.25;11.23;;;;;;;7.05;100.00;96249.00;5067650;28;20739;-54
2022/04/12 05:36:04;;;;;;;13.75;11.35;;;;;;;7.16;100.00;96250.75;5062201;28;20059;-51
2022/04/12 05:38:32;;;;;;;15.05;11.63;;;;;;;7.30;100.00;96255.66;5068298;28;20104;-48
2022/04/12 05:41:01;;;;;;;15.45;11.45;;;;;;;7.55;100.00;96250.97;5065216;28;20437;-47
2022/04/12 05:43:29;;;;;;;13.68;10.75;;;;;;;7.77;100.00;96248.13;5063173;28;20044;-52
2022/04/12 05:45:58;;;;;;;16.92;10.63;;;;;;;7.62;100.00;96252.09;5061945;28;20065;-47
2022/04/12 05:48:27;;;;;;;15.80;11.05;;;;;;;7.13;100.00;96251.00;5066125;28;20064;-53
2022/04/12 05:50:55;;;;;;;14.07;10.73;;;;;;;7.20;100.00;96251.34;5064243;28;20072;-49
2022/04/12 05:53:23;;;;;;;14.57;10.57;;;;;;;7.18;100.00;96246.19;5064251;28;20076;-54
2022/04/12 05:55:52;;;;;;;17.55;11.98;;;;;;;7.68;100.00;96254.19;5063441;28;20455;-47
2022/04/12 05:58:20;;;;;;;13.25;10.52;;;;;;;7.55;100.00;96245.72;5061699;28;20075;-53
2022/04/12 06:00:48;;;;;;;12.35;9.52;;;;;;;7.77;100.00;96247.31;5063757;28;20064;-49
2022/04/12 06:03:18;;;;;;;14.98;10.38;;;;;;;7.15;100.00;96259.56;5064983;28;20071;-51
2022/04/12 06:05:48;;;;;;;17.60;10.50;;;;;;;7.59;100.00;96252.34;5061486;28;20588;-49
2022/04/12 06:08:17;;;;;;;15.27;9.73;;;;;;;7.27;100.00;96253.28;5062412;28;20080;-50
2022/04/12 06:10:45;;;;;;;18.20;11.13;;;;;;;8.09;100.00;96255.03;5061284;28;20091;-54
2022/04/12 06:13:13;;;;;;;13.50;9.80;;;;;;;7.56;100.00;96257.84;5060039;28;20669;-49
2022/04/12 06:15:42;;;;;;;13.20;9.23;;;;;;;8.09;100.00;96249.78;5063211;28;20279;-51
2022/04/12 06:18:10;;;;;;;12.52;9.00;;;;;;;7.92;100.00;96248.63;5061356;28;20060;-53
2022/04/12 06:20:40;;;;;;;14.77;9.70;;;;;;;7.99;100.00;96243.66;5066693;28;20060;-54
2022/04/12 06:23:08;;;;;;;10.75;8.88;;;;;;;8.02;100.00;96241.59;5067261;28;20565;-52
2022/04/12 06:25:36;;;;;;;12.63;9.15;;;;;;;8.47;100.00;96238.53;5067305;28;20313;-53
2022/04/12 06:28:07;;;;;;;11.13;9.00;;;;;;;8.29;100.00;96234.88;5067433;28;20518;-54
2022/04/12 06:30:35;;;;;;;;;;;;;;;8.24;100.00;96244.97;5062968;28;20542;-53
2022/04/12 06:33:03;;;;;;;12.48;9.02;;;;;;;8.33;100.00;96247.63;5062390;28;19978;-54
2022/04/12 06:35:31;;;;;;;10.38;8.90;;;;;;;8.48;100.00;96247.25;5067262;28;20091;-55
2022/04/12 06:38:03;;;;;;;11.98;8.63;;;;;;;9.03;100.00;96243.09;5068856;28;20099;-48
2022/04/12 06:40:31;;;;;;;10.07;8.85;;;;;;;8.94;100.00;96245.72;5068279;28;20390;-52
2022/04/12 06:42:59;;;;;;;11.10;8.52;;;;;;;9.40;100.00;96241.50;5062811;28;20075;-53
2022/04/12 06:45:29;;;;;;;12.30;8.18;;;;;;;8.91;100.00;96244.22;5068577;28;20064;-53
2022/04/12 06:48:00;;;;;;;14.98;8.70;;;;;;;9.42;100.00;96242.19;5067004;28;20072;-49
2022/04/12 06:50:28;;;;;;;;;;;;;;;9.39;100.00;96248.53;5064923;28;20048;-53
2022/04/12 06:52:57;;;;;;;12.60;7.78;;;;;;;10.17;100.00;96250.88;5069111;28;19931;-50
2022/04/12 06:55:28;;;;;;;10.25;8.45;;;;;;;9.95;100.00;96247.69;5068600;28;20071;-52
2022/04/12 06:57:56;;;;;;;10.70;7.55;;;;;;;10.20;100.00;96248.78;5068752;28;20075;-48
2022/04/12 07:00:25;;;;;;;11.00;7.75;;;;;;;10.23;100.00;96245.84;5068247;28;20067;-53
2022/04/12 07:02:54;;;;;;;11.25;7.60;;;;;;;9.89;100.00;96245.63;5068477;28;20065;-52
2022/04/12 07:05:22;;;;;;;9.70;7.90;;;;;;;9.86;100.00;96231.91;5069900;28;20095;-49
2022/04/12 07:07:50;;;;;;;8.70;7.78;;;;;;;9.90;100.00;96231.47;5068997;28;20080;-50
2022/04/12 07:10:19;;;;;;;9.60;7.72;;;;;;;10.34;100.00;96236.94;5068010;28;20075;-49
2022/04/12 07:12:53;;;;;;;10.55;7.55;;;;;;;10.33;100.00;96237.94;5066087;28;20049;-50
2022/04/12 07:15:22;;;;;;;8.60;7.40;;;;;;;10.30;100.00;96240.84;5067855;28;20060;-52
2022/04/12 07:17:50;;;;;;;8.40;7.05;;;;;;;10.61;100.00;96233.44;5067826;28;20068;-50
2022/04/12 07:20:20;;;;;;;11.77;8.02;;;;;;;10.60;100.00;96239.69;5067968;28;20103;-50
2022/04/12 07:22:48;;;;;;;10.20;7.47;;;;;;;10.86;100.00;96241.56;5062943;28;20084;-54
2022/04/12 07:25:17;;;;;;;14.25;8.40;;;;;;;11.42;100.00;96242.97;5070882;28;20472;-53
2022/04/12 07:27:45;;;;;;;10.98;7.80;;;;;;;11.28;100.00;96254.09;5067935;28;20787;-48
2022/04/12 07:30:16;;;;;;;9.45;7.85;;;;;;;11.67;100.00;96251.06;5067709;28;20517;-53
2022/04/12 07:33:04;;;;;;;10.50;7.82;;;;;;;11.67;100.00;96256.34;5062483;28;20057;-47
2022/04/12 07:35:32;;;;;;;9.95;7.43;;;;;;;11.62;100.00;96257.63;5068944;28;20464;-55
2022/04/12 07:38:01;;;;;;;12.52;8.02;;;;;;;11.42;100.00;96261.44;5068464;28;20092;-57
2022/04/12 07:40:29;;;;;;;11.07;7.55;;;;;;;11.74;100.00;96257.38;5064931;28;20071;-55
2022/04/12 07:42:57;;;;;;;12.40;7.40;;;;;;;11.76;100.00;96260.66;5065928;28;20068;-52
2022/04/12 07:45:27;;;;;;;9.75;7.75;;;;;;;11.75;100.00;96259.84;5067833;28;20067;-51
2022/04/12 07:47:55;;;;;;;11.77;7.65;;;;;;;12.04;100.00;96259.53;5066813;28;20104;-51
2022/04/12 07:50:27;;;;;;;8.95;7.05;;;;;;;12.19;100.00;96253.66;5067598;28;20072;-49
2022/04/12 07:52:55;;;;;;;7.85;7.05;;;;;;;12.11;100.00;96241.22;5068303;28;20080;-55
2022/04/12 07:55:23;;;;;;;8.35;7.13;;;;;;;12.35;100.00;96248.41;5067918;28;20068;-54
2022/04/12 07:57:52;;;;;;;7.97;6.65;;;;;;;12.38;100.00;96250.72;5067911;28;20068;-55
2022/04/12 08:00:20;;;;;;;9.18;7.15;;;;;;;12.69;100.00;96244.84;5067083;28;20043;-53
2022/04/12 08:02:50;;;;;;;8.77;6.88;;;;;;;12.05;100.00;96247.97;5069140;28;20064;-50
2022/04/12 08:05:18;;;;;;;10.17;7.40;;;;;;;12.76;100.00;96243.19;5072768;28;20095;-51
2022/04/12 08:07:48;;;;;;;8.68;6.90;;;;;;;12.58;100.00;96253.91;5071698;28;20625;-55
2022/04/12 08:10:16;;;;;;;9.87;6.87;;;;;;;13.24;100.00;96246.88;5064836;28;20679;-53
2022/04/12 08:12:46;;;;;;;9.95;6.90;;;;;;;12.73;100.00;96244.38;5068075;28;20079;-53
2022/04/12 08:15:16;;;;;;;6.97;6.18;;;;;;;13.36;100.00;96232.34;5071690;28;20050;-51
2022/04/12 08:17:44;;;;;;;10.57;6.63;;;;;;;13.39;100.00;96231.19;5071273;28;20177;-50
2022/04/12 08:20:14;;;;;;;7.80;6.72;;;;;;;12.98;100.00;96228.50;5070862;28;20095;-49
2022/04/12 08:22:43;;;;;;;7.70;6.77;;;;;;;13.36;100.00;96220.91;5069998;28;20084;-52
2022/04/12 08:25:17;;;;;;;8.43;6.32;;;;;;;13.12;100.00;96229.66;5071191;28;20064;-50
2022/04/12 08:27:46;;;;;;;9.10;6.75;;;;;;;13.70;100.00;96221.50;5071096;28;20415;-53
2022/04/12 08:30:14;;;;;;;8.75;6.88;;;;;;;13.13;100.00;96226.03;5070797;28;20064;-50
2022/04/12 08:32:42;;;;;;;10.60;6.68;;;;;;;13.44;100.00;96219.06;5070962;28;20079;-52
2022/04/12 08:35:11;;;;;;;8.05;6.53;;;;;;;13.57;100.00;96230.97;5073515;28;20064;-52
2022/04/12 08:37:40;;;;;;;7.53;6.50;;;;;;;13.78;100.00;96218.81;5065531;28;20080;-47
2022/04/12 08:40:09;;;;;;;7.67;6.33;;;;;;;13.99;100.00;96220.91;5070503;28;20470;-46
2022/04/12 08:42:38;;;;;;;7.13;6.18;;;;;;;13.57;100.00;96215.91;5065594;28;20060;-46
2022/04/12 08:45:08;;;;;;;7.00;6.05;;;;;;;14.21;100.00;96213.16;5069199;28;20056;-50
2022/04/12 08:47:36;;;;;;;8.17;6.63;;;;;;;13.65;100.00;96209.75;5069897;28;20489;-48
2022/04/12 08:50:06;;;;;;;8.88;6.47;;;;;;;14.35;100.00;96212.47;5071091;28;20489;-50
2022/04/12 08:52:36;;;;;;;7.38;6.45;;;;;;;14.46;100.00;96212.06;5069892;28;20462;-47
2022/04/12 08:55:07;;;;;;;8.83;6.30;;;;;;;14.83;100.00;96210.53;5070841;28;20060;-55
2022/04/12 08:57:35;;;;;;;7.50;6.40;;;;;;;14.70;100.00;96202.31;5068418;28;20474;-54
2022/04/12 09:00:05;;;;;;;7.25;6.40;;;;;;;14.94;100.00;96206.63;5070634;28;20545;-53
2022/04/12 09:02:34;;;;;;;7.90;5.90;;;;;;;14.81;100.00;96204.56;5070545;28;20576;-51
2022/04/12 09:05:02;;;;;;;8.35;6.07;;;;;;;15.30;100.00;96204.16;5072300;28;20553;-50
2022/04/12 09:07:31;;;;;;;6.53;5.82;;;;;;;15.34;100.00;96207.28;5067041;28;20421;-54
2022/04/12 09:10:08;;;;;;;9.52;5.75;;;;;;;15.51;100.00;96199.97;5069948;28;20064;-51
2022/04/12 09:12:36;;;;;;;7.03;5.78;;;;;;;15.21;100.00;96205.25;5070369;28;20069;-52
2022/04/12 09:15:10;;;;;;;7.28;5.60;;;;;;;15.52;100.00;96197.16;5070087;28;20474;-52
2022/04/12 09:17:41;;;;;;;6.75;5.68;;;;;;;15.71;97.83;96206.44;5070491;28;20060;-52
2022/04/12 09:20:12;;;;;;;6.80;5.75;;;;;;;16.12;100.00;96197.97;5070126;28;20080;-49
2022/04/12 09:22:41;;;;;;;5.28;4.78;;;;;;;15.88;99.62;96197.25;5067664;28;20603;-50
2022/04/12 09:25:13;;;;;;;7.45;5.60;;;;;;;16.33;92.63;96192.72;5070995;28;20056;-53
2022/04/12 09:27:44;;;;;;;7.22;5.53;;;;;;;16.26;89.70;96193.66;5069200;28;20068;-55
2022/04/12 09:30:13;;;;;;;6.25;5.32;;;;;;;15.94;94.83;96192.22;5068887;28;20076;-50
2022/04/12 09:32:43;;;;;;;6.15;5.22;;;;;;;16.44;87.60;96180.75;5066776;28;20064;-51
2022/04/12 09:35:11;;;;;;;5.95;4.70;;;;;;;16.37;92.82;96186.00;5068475;28;20083;-53
2022/04/12 09:37:42;;;;;;;6.05;4.90;;;;;;;16.26;87.30;96189.16;5070738;28;20091;-55
2022/04/12 09:40:12;;;;;;;6.47;4.97;;;;;;;16.69;82.28;96181.25;5067303;28;20066;-55
2022/04/12 09:42:47;;;;;;;6.10;4.68;;;;;;;17.27;77.80;96182.00;5069978;28;20069;-52
2022/04/12 09:45:18;;;;;;;5.78;4.25;;;;;;;16.93;73.71;96184.53;5069707;28;20068;-53
2022/04/12 09:47:48;;;;;;;6.25;4.40;;;;;;;16.75;73.47;96167.16;5069616;28;20080;-47
2022/04/12 09:50:36;;;;;;;5.28;4.22;;;;;;;17.18;73.83;96174.31;5069099;28;20096;-48
2022/04/12 09:53:10;;;;;;;5.50;4.32;;;;;;;17.18;68.42;96169.81;5069666;28;20094;-49
2022/04/12 09:55:42;;;;;;;8.07;4.35;;;;;;;17.03;71.88;96174.38;5070103;28;20080;-52
2022/04/12 09:58:13;;;;;;;7.72;4.38;;;;;;;17.63;68.06;96161.50;5069256;28;20068;-52
2022/04/12 10:00:42;;;;;;;5.57;4.22;;;;;;;17.48;65.65;96164.28;5058944;28;20432;-51
2022/04/12 10:03:14;;;;;;;5.53;4.00;;;;;;;17.47;62.97;96165.28;5059602;28;20462;-52
2022/04/12 10:05:43;;;;;;;6.75;3.97;;;;;;;17.66;62.48;96145.13;5068903;28;20075;-51
2022/04/12 10:08:13;;;;;;;6.63;4.27;;;;;;;17.65;65.72;96140.78;5068823;28;20087;-55
2022/04/12 10:10:44;;;;;;;4.63;4.13;;;;;;;17.10;64.12;96140.63;5069631;28;20083;-56
2022/04/12 10:13:14;;;;;;;6.82;3.92;;;;;;;17.53;69.28;96136.00;5067022;28;20522;-47
2022/04/12 10:15:43;;;;;;;5.32;4.40;;;;;;;17.45;68.65;96140.69;5069212;28;20108;-49
2022/04/12 10:18:15;;;;;;;5.90;4.03;;;;;;;17.87;69.57;96131.72;5067751;28;20404;-52
2022/04/12 10:20:44;;;;;;;5.25;4.43;;;;;;;17.99;68.98;96137.31;5068774;28;20094;-49
2022/04/12 10:23:17;;;;;;;5.57;4.30;;;;;;;18.20;62.85;96139.03;5068471;28;20079;-53
2022/04/12 10:25:50;;;;;;;4.70;4.10;;;;;;;18.21;65.35;96133.50;5069651;28;20092;-49
2022/04/12 10:28:18;;;;;;;6.93;4.40;;;;;;;18.06;60.21;96127.47;5068273;28;20067;-49
2022/04/12 10:30:46;;;;;;;6.70;4.00;;;;;;;17.72;69.31;96126.50;5068801;28;20067;-51
2022/04/12 10:33:20;;;;;;;5.95;4.47;;;;;;;17.91;61.30;96127.63;5068970;28;20075;-53
2022/04/12 10:36:02;;;;;;;5.93;4.60;;;;;;;17.97;62.81;96118.03;5067583;28;20064;-54
2022/04/12 10:38:40;;;;;;;7.68;4.75;;;;;;;18.06;65.95;96121.31;5067412;28;20056;-47
2022/04/12 10:41:15;;;;;;;6.28;4.85;;;;;;;18.16;65.66;96113.75;5066916;28;20083;-52
2022/04/12 10:43:44;;;;;;;5.35;4.25;;;;;;;18.14;63.64;96113.16;5065232;28;20087;-49
2022/04/12 10:46:16;;;;;;;6.18;4.40;;;;;;;18.29;62.39;96111.13;5068704;28;20076;-55
2022/04/12 10:48:44;;;;;;;4.65;4.20;;;;;;;18.38;62.46;96111.78;5067898;28;20056;-49
2022/04/12 10:51:15;;;;;;;5.25;3.65;;;;;;;17.99;56.66;96110.63;5068362;28;20071;-48
2022/04/12 10:53:57;;;;;;;4.00;3.47;;;;;;;18.21;52.45;96114.00;5068446;28;20075;-47
2022/04/12 10:56:27;;;;;;;5.78;3.22;;;;;;;18.39;51.62;96108.91;5068031;28;20099;-49
2022/04/12 10:58:55;;;;;;;4.30;3.30;;;;;;;18.44;51.08;96109.13;5063304;28;20076;-52
2022/04/12 11:01:31;;;;;;;4.53;3.63;;;;;;;18.53;50.61;96100.91;5064752;28;20514;-51
2022/04/12 11:04:02;;;;;;;4.75;3.40;;;;;;;18.16;49.30;96103.09;5069159;28;20061;-49
2022/04/12 11:06:30;;;;;;;4.78;3.65;;;;;;;18.16;47.17;96101.22;5068510;28;20533;-50
2022/04/12 11:09:09;;;;;;;4.18;3.25;;;;;;;18.16;47.04;96109.25;5062426;28;20490;-50
2022/04/12 11:11:41;;;;;;;6.13;3.28;;;;;;;18.59;44.66;96106.28;5068346;28;20061;-50
2022/04/12 11:14:23;;;;;;;5.53;3.00;;;;;;;18.78;46.28;96098.50;5063581;28;20080;-48
2022/04/12 11:16:55;;;;;;;3.83;3.00;;;;;;;18.69;45.13;96096.00;5068843;28;20100;-51
2022/04/12 11:19:25;;;;;;;6.70;3.00;;;;;;;18.51;45.53;96090.44;5067816;28;20060;-55
2022/04/12 11:22:00;;;;;;;3.78;2.80;;;;;;;19.06;44.30;96082.25;5068573;28;20102;-50
2022/04/12 11:24:28;;;;;;;4.28;2.70;;;;;;;19.16;44.81;96088.00;5068782;28;20087;-55
2022/04/12 11:27:09;;;;;;;5.20;2.78;;;;;;;18.95;44.10;96087.19;5066714;28;20064;-50
2022/04/12 11:29:38;;;;;;;3.17;2.80;;;;;;;19.43;43.29;96075.41;5064305;28;20064;-45
2022/04/12 11:32:08;;;;;;;3.83;2.70;;;;;;;18.62;42.22;96091.69;5068113;28;20080;-45
2022/04/12 11:34:37;;;;;;;5.38;2.50;;;;;;;19.01;42.54;96082.06;5068659;28;20076;-46
2022/04/12 11:37:08;;;;;;;5.25;2.88;;;;;;;19.24;43.75;96089.66;5069823;28;20146;-45